createdAt,value
2017-03-27T00:02:35.389Z,80.136
2017-03-27T00:05:27.691Z,80.916
2017-03-27T00:08:21.704Z,81.198
2017-03-27T00:14:09.623Z,81.649
2017-03-27T00:17:03.670Z,81.792
2017-03-27T00:19:57.714Z,82.323
2017-03-27T00:22:51.796Z,82.775
2017-03-27T00:25:45.869Z,81.918
2017-03-27T00:28:40.478Z,81.632
2017-03-27T00:31:33.810Z,82.223
2017-03-27T00:34:27.690Z,82.620
2017-03-27T00:37:21.757Z,82.343
2017-03-27T00:40:15.975Z,81.888
2017-03-27T00:43:09.949Z,81.982
2017-03-27T00:46:05.663Z,81.853
2017-03-27T00:48:59.754Z,82.499
2017-03-27T00:51:52.047Z,83.538
2017-03-27T00:54:47.005Z,83.488
2017-03-27T00:57:40.058Z,83.034
2017-03-27T01:00:34.033Z,84.284
2017-03-27T01:03:27.956Z,84.230
2017-03-27T01:06:22.050Z,84.388
2017-03-27T01:09:15.875Z,84.399
2017-03-27T01:12:09.771Z,84.071
2017-03-27T01:15:03.775Z,83.837
2017-03-27T01:17:57.711Z,84.096
2017-03-27T01:20:51.568Z,83.909
2017-03-27T01:23:45.467Z,83.977
2017-03-27T01:26:39.599Z,84.089
2017-03-27T01:29:33.643Z,84.120
2017-03-27T01:32:29.476Z,84.429
2017-03-27T01:35:21.639Z,84.772
2017-03-27T01:38:15.622Z,84.946
2017-03-27T01:41:09.615Z,84.720
2017-03-27T01:44:05.341Z,85.219
2017-03-27T01:46:57.458Z,85.288
2017-03-27T01:49:51.484Z,85.467
2017-03-27T01:52:47.158Z,85.083
2017-03-27T01:55:39.311Z,86.064
2017-03-27T01:58:33.288Z,85.761
2017-03-27T02:01:29.103Z,85.849
2017-03-27T02:04:21.283Z,85.684
2017-03-27T02:07:15.132Z,85.375
2017-03-27T02:10:09.115Z,85.594
2017-03-27T02:13:04.656Z,85.313
2017-03-27T02:15:56.865Z,86.199
2017-03-27T02:18:50.707Z,86.633
2017-03-27T02:21:44.571Z,86.509
2017-03-27T02:24:38.515Z,86.492
2017-03-27T02:27:32.450Z,86.461
2017-03-27T02:30:26.294Z,86.946
2017-03-27T02:33:20.059Z,86.888
2017-03-27T02:36:14.044Z,86.888
2017-03-27T02:39:07.739Z,86.007
2017-03-27T02:42:01.680Z,86.032
2017-03-27T02:44:55.469Z,86.260
2017-03-27T02:47:49.226Z,86.839
2017-03-27T02:50:42.943Z,86.382
2017-03-27T02:53:38.583Z,86.563
2017-03-27T02:56:30.672Z,87.048
2017-03-27T02:59:26.142Z,87.027
2017-03-27T03:05:12.224Z,87.135
2017-03-27T03:08:06.010Z,86.939
2017-03-27T03:10:59.759Z,86.674
2017-03-27T03:13:55.330Z,87.292
2017-03-27T03:16:47.366Z,86.625
2017-03-27T03:19:41.302Z,87.207
2017-03-27T03:22:35.102Z,87.287
2017-03-27T03:25:28.871Z,87.584
2017-03-27T03:28:22.974Z,88.327
2017-03-27T03:31:16.828Z,87.128
2017-03-27T03:34:10.502Z,87.276
2017-03-27T03:37:04.245Z,87.689
2017-03-27T03:39:58.116Z,88.060
2017-03-27T03:42:53.634Z,88.666
2017-03-27T03:45:45.833Z,88.395
2017-03-27T03:48:41.391Z,88.470
2017-03-27T03:51:33.515Z,88.726
2017-03-27T03:54:27.298Z,88.918
2017-03-27T03:57:21.312Z,88.692
2017-03-27T04:00:15.242Z,88.485
2017-03-27T04:03:09.051Z,89.191
2017-03-27T04:06:04.523Z,88.685
2017-03-27T04:08:59.321Z,89.611
2017-03-27T04:11:50.381Z,89.220
2017-03-27T04:14:44.321Z,89.131
2017-03-27T04:17:37.913Z,89.137
2017-03-27T04:20:31.582Z,89.351
2017-03-27T04:23:27.969Z,89.015
2017-03-27T04:26:19.072Z,89.088
2017-03-27T04:29:14.387Z,90.236
2017-03-27T04:32:06.562Z,90.240
2017-03-27T04:35:00.370Z,89.686
2017-03-27T04:37:54.237Z,89.470
2017-03-27T04:40:48.073Z,89.457
2017-03-27T04:43:41.809Z,90.046
2017-03-27T04:46:35.719Z,89.575
2017-03-27T04:49:29.512Z,89.685
2017-03-27T04:52:23.228Z,89.459
2017-03-27T04:55:17.085Z,89.482
2017-03-27T04:58:10.961Z,89.285
2017-03-27T05:01:06.710Z,89.303
2017-03-27T05:03:58.738Z,89.201
2017-03-27T05:06:52.694Z,89.002
2017-03-27T05:09:46.486Z,89.021
2017-03-27T05:12:40.411Z,88.786
2017-03-27T05:15:36.069Z,88.675
2017-03-27T05:18:29.914Z,88.468
2017-03-27T05:21:22.199Z,88.408
2017-03-27T05:24:16.084Z,87.770
2017-03-27T05:27:09.895Z,86.972
2017-03-27T05:30:03.836Z,82.821
2017-03-27T05:32:57.819Z,81.456
2017-03-27T05:35:51.722Z,81.750
2017-03-27T05:38:47.415Z,82.079
2017-03-27T05:41:39.758Z,81.543
2017-03-27T05:44:33.856Z,80.917
2017-03-27T05:47:27.728Z,75.525
2017-03-27T05:50:21.774Z,69.335
2017-03-27T05:53:17.541Z,67.232
2017-03-27T05:56:10.019Z,68.825
2017-03-27T05:59:04.038Z,70.254
2017-03-27T06:01:59.826Z,71.626
2017-03-27T06:04:53.889Z,72.039
2017-03-27T06:07:46.193Z,71.219
2017-03-27T06:10:40.289Z,69.993
2017-03-27T06:13:34.363Z,65.361
2017-03-27T06:16:28.496Z,63.608
2017-03-27T06:19:24.430Z,64.987
2017-03-27T06:22:17.564Z,64.243
2017-03-27T06:25:11.052Z,61.860
2017-03-27T06:28:05.396Z,60.267
2017-03-27T06:30:59.720Z,57.943
2017-03-27T06:33:54.154Z,49.693
2017-03-27T06:36:48.733Z,40.759
2017-03-27T06:39:43.635Z,37.130
2017-03-27T06:42:38.624Z,30.027
2017-03-27T06:45:33.727Z,29.598
2017-03-27T06:48:28.736Z,27.254
2017-03-27T06:51:23.754Z,24.189
2017-03-27T06:54:18.890Z,23.817
2017-03-27T06:57:14.315Z,29.458
2017-03-27T07:00:09.715Z,23.123
2017-03-27T07:03:05.024Z,24.433
2017-03-27T07:06:00.292Z,24.820
2017-03-27T07:08:55.717Z,20.718
2017-03-27T07:11:50.923Z,24.379
2017-03-27T07:14:46.162Z,25.945
2017-03-27T07:17:41.238Z,23.485
2017-03-27T07:20:36.403Z,26.981
2017-03-27T07:23:31.546Z,27.375
2017-03-27T07:26:28.336Z,27.634
2017-03-27T07:29:21.764Z,26.994
2017-03-27T07:32:17.130Z,27.723
2017-03-27T07:35:12.441Z,27.863
2017-03-27T07:38:07.801Z,24.920
2017-03-27T07:41:03.233Z,26.826
2017-03-27T07:43:58.937Z,24.259
2017-03-27T07:46:54.490Z,27.346
2017-03-27T07:49:50.067Z,26.690
2017-03-27T07:52:45.516Z,26.007
2017-03-27T07:55:40.959Z,22.440
2017-03-27T07:58:36.624Z,20.275
2017-03-27T08:01:32.203Z,20.854
2017-03-27T08:04:27.751Z,19.047
2017-03-27T08:07:23.270Z,17.509
2017-03-27T08:10:18.906Z,23.797
2017-03-27T08:13:14.625Z,20.690
2017-03-27T08:16:10.285Z,21.120
2017-03-27T08:19:05.814Z,18.066
2017-03-27T08:22:01.321Z,24.321
2017-03-27T08:24:56.816Z,17.505
2017-03-27T08:27:52.357Z,22.709
2017-03-27T08:30:49.638Z,20.275
2017-03-27T08:33:43.131Z,19.337
2017-03-27T08:36:38.659Z,16.695
2017-03-27T08:39:34.009Z,15.366
2017-03-27T08:42:29.843Z,16.990
2017-03-27T08:45:25.571Z,14.646
2017-03-27T08:48:21.237Z,15.652
2017-03-27T08:51:16.669Z,15.655
2017-03-27T08:54:12.280Z,15.982
2017-03-27T08:57:07.982Z,14.461
2017-03-27T09:00:03.615Z,15.351
2017-03-27T09:02:59.220Z,18.922
2017-03-27T09:05:54.844Z,16.999
2017-03-27T09:08:50.446Z,13.711
2017-03-27T09:11:46.226Z,11.578
2017-03-27T09:14:41.799Z,13.593
2017-03-27T09:17:37.358Z,14.114
2017-03-27T09:20:32.751Z,13.691
2017-03-27T09:23:28.201Z,14.037
2017-03-27T09:26:23.624Z,12.048
2017-03-27T09:29:18.856Z,8.504
2017-03-27T09:32:13.570Z,9.715
2017-03-27T09:35:10.207Z,8.865
2017-03-27T09:38:03.344Z,5.988
2017-03-27T09:40:58.225Z,7.139
2017-03-27T09:43:52.821Z,5.047
2017-03-27T09:46:47.660Z,5.896
2017-03-27T09:49:42.443Z,6.275
2017-03-27T09:52:40.616Z,7.729
2017-03-27T09:55:31.979Z,6.604
2017-03-27T09:58:26.814Z,9.281
2017-03-27T10:01:21.707Z,12.254
2017-03-27T10:04:16.917Z,12.376
2017-03-27T10:07:11.977Z,9.854
2017-03-27T10:10:06.924Z,10.002
2017-03-27T10:13:01.824Z,5.628
2017-03-27T10:15:57.108Z,7.509
2017-03-27T10:18:52.179Z,7.106
2017-03-27T10:21:47.469Z,5.057
2017-03-27T10:24:42.529Z,5.596
2017-03-27T10:27:36.774Z,6.342
2017-03-27T10:30:30.498Z,8.098
2017-03-27T10:33:24.398Z,13.993
2017-03-27T10:36:18.290Z,17.615
2017-03-27T10:39:12.433Z,21.230
2017-03-27T10:42:06.586Z,23.190
2017-03-27T10:45:00.959Z,25.396
2017-03-27T10:47:57.051Z,28.306
2017-03-27T10:50:49.494Z,27.454
2017-03-27T10:53:43.794Z,29.326
2017-03-27T10:56:38.476Z,29.242
2017-03-27T10:59:32.964Z,32.072
2017-03-27T11:02:27.530Z,30.049
2017-03-27T11:05:22.055Z,30.901
2017-03-27T11:08:16.543Z,32.468
2017-03-27T11:11:11.124Z,32.696
2017-03-27T11:14:05.753Z,32.083
2017-03-27T11:17:00.328Z,31.479
2017-03-27T11:19:54.751Z,32.903
2017-03-27T11:22:49.250Z,33.158
2017-03-27T11:25:43.812Z,32.679
2017-03-27T11:28:38.269Z,32.187
2017-03-27T11:31:32.631Z,31.400
2017-03-27T11:34:27.035Z,33.115
2017-03-27T11:37:21.492Z,34.760
2017-03-27T11:40:15.874Z,33.949
2017-03-27T11:43:10.237Z,34.423
2017-03-27T11:46:04.617Z,33.443
2017-03-27T11:48:58.983Z,35.639
2017-03-27T11:51:53.379Z,34.110
2017-03-27T11:54:47.750Z,35.392
2017-03-27T11:57:42.154Z,36.146
2017-03-27T12:00:36.432Z,34.153
2017-03-27T12:03:30.791Z,35.312
2017-03-27T12:06:25.270Z,33.699
2017-03-27T12:09:19.617Z,34.942
2017-03-27T12:12:14.059Z,34.338
2017-03-27T12:15:08.426Z,33.563
2017-03-27T12:18:02.761Z,35.307
2017-03-27T12:20:57.249Z,34.068
2017-03-27T12:23:51.644Z,32.770
2017-03-27T12:26:46.075Z,34.614
2017-03-27T12:29:40.583Z,34.056
2017-03-27T12:32:35.012Z,32.892
2017-03-27T12:35:29.331Z,33.051
2017-03-27T12:38:23.696Z,32.630
2017-03-27T12:41:18.088Z,33.864
2017-03-27T12:44:12.550Z,33.801
2017-03-27T12:47:07.030Z,35.713
2017-03-27T12:50:01.475Z,33.954
2017-03-27T12:52:55.886Z,33.695
2017-03-27T12:55:50.459Z,33.107
2017-03-27T12:58:44.920Z,34.028
2017-03-27T13:01:39.487Z,32.946
2017-03-27T13:04:33.971Z,32.605
2017-03-27T13:07:28.470Z,32.450
2017-03-27T13:10:22.997Z,33.676
2017-03-27T13:13:17.495Z,32.442
2017-03-27T13:16:12.165Z,32.497
2017-03-27T13:19:06.575Z,33.427
2017-03-27T13:22:00.926Z,32.541
2017-03-27T13:24:55.329Z,32.833
2017-03-27T13:27:49.707Z,33.436
2017-03-27T13:30:44.078Z,33.500
2017-03-27T13:33:38.488Z,33.646
2017-03-27T13:36:32.893Z,33.424
2017-03-27T13:39:27.406Z,33.475
2017-03-27T13:42:21.754Z,32.371
2017-03-27T13:45:16.235Z,31.314
2017-03-27T13:48:10.581Z,33.874
2017-03-27T13:51:05.052Z,32.437
2017-03-27T13:53:59.531Z,32.638
2017-03-27T13:56:53.867Z,33.285
2017-03-27T13:59:48.172Z,32.734
2017-03-27T14:02:42.452Z,31.605
2017-03-27T14:05:36.949Z,31.854
2017-03-27T14:08:31.385Z,31.841
2017-03-27T14:11:25.883Z,33.556
2017-03-27T14:14:20.342Z,33.040
2017-03-27T14:17:14.783Z,33.236
2017-03-27T14:20:09.245Z,33.200
2017-03-27T14:23:03.673Z,33.673
2017-03-27T14:25:58.096Z,33.411
2017-03-27T14:28:52.525Z,33.551
2017-03-27T14:31:46.986Z,33.307
2017-03-27T14:34:43.143Z,34.264
2017-03-27T14:37:35.956Z,32.778
2017-03-27T14:40:30.380Z,33.711
2017-03-27T14:43:24.808Z,33.483
2017-03-27T14:46:19.215Z,33.591
2017-03-27T14:49:13.659Z,33.644
2017-03-27T14:52:08.182Z,33.793
2017-03-27T14:55:02.717Z,34.380
2017-03-27T14:57:57.177Z,34.873
2017-03-27T15:00:51.506Z,34.108
2017-03-27T15:03:45.868Z,34.058
2017-03-27T15:06:40.263Z,33.542
2017-03-27T15:09:34.606Z,33.317
2017-03-27T15:12:29.211Z,34.111
2017-03-27T15:15:23.634Z,32.996
2017-03-27T15:18:18.068Z,32.977
2017-03-27T15:21:12.547Z,33.750
2017-03-27T15:24:07.186Z,34.068
2017-03-27T15:27:01.569Z,33.206
2017-03-27T15:29:56.088Z,36.952
2017-03-27T15:32:50.426Z,33.821
2017-03-27T15:35:44.864Z,33.111
2017-03-27T15:38:39.255Z,33.554
2017-03-27T15:41:33.776Z,32.264
2017-03-27T15:44:28.257Z,33.122
2017-03-27T15:47:22.612Z,33.147
2017-03-27T15:50:17.017Z,34.079
2017-03-27T15:53:11.386Z,33.345
2017-03-27T15:56:05.909Z,32.737
2017-03-27T15:59:00.271Z,31.765
2017-03-27T16:01:54.695Z,32.969
2017-03-27T16:04:49.225Z,34.396
2017-03-27T16:07:43.608Z,32.620
2017-03-27T16:10:37.986Z,33.151
2017-03-27T16:13:32.375Z,33.565
2017-03-27T16:16:26.881Z,33.611
2017-03-27T16:19:21.321Z,33.880
2017-03-27T16:22:15.663Z,34.269
2017-03-27T16:25:10.028Z,34.788
2017-03-27T16:28:04.405Z,34.464
2017-03-27T16:30:58.714Z,36.042
2017-03-27T16:33:53.135Z,35.642
2017-03-27T16:36:49.213Z,35.168
2017-03-27T16:39:41.997Z,35.861
2017-03-27T16:42:36.455Z,36.450
2017-03-27T16:45:30.781Z,34.593
2017-03-27T16:48:25.168Z,36.483
2017-03-27T16:51:19.644Z,37.358
2017-03-27T16:54:14.050Z,36.132
2017-03-27T16:57:10.046Z,37.794
2017-03-27T17:00:02.671Z,37.362
2017-03-27T17:02:57.022Z,37.123
2017-03-27T17:05:51.291Z,38.117
2017-03-27T17:08:45.669Z,37.907
2017-03-27T17:11:39.950Z,38.348
2017-03-27T17:14:34.346Z,37.693
2017-03-27T17:17:28.548Z,38.672
2017-03-27T17:20:22.967Z,38.641
2017-03-27T17:23:17.155Z,38.896
2017-03-27T17:26:11.559Z,41.117
2017-03-27T17:29:05.805Z,39.728
2017-03-27T17:32:00.214Z,40.730
2017-03-27T17:34:54.499Z,40.616
2017-03-27T17:37:48.818Z,40.789
2017-03-27T17:40:43.135Z,41.308
2017-03-27T17:43:37.381Z,41.539
2017-03-27T17:46:31.665Z,42.477
2017-03-27T17:49:25.961Z,41.042
2017-03-27T17:52:20.251Z,42.302
2017-03-27T17:55:16.193Z,42.477
2017-03-27T17:58:08.691Z,42.725
2017-03-27T18:01:02.907Z,42.489
2017-03-27T18:03:57.171Z,42.461
2017-03-27T18:06:51.496Z,43.248
2017-03-27T18:09:45.894Z,43.148
2017-03-27T18:12:40.363Z,44.696
2017-03-27T18:15:34.757Z,44.682
2017-03-27T18:18:29.189Z,45.058
2017-03-27T18:21:23.572Z,43.054
2017-03-27T18:24:17.892Z,44.023
2017-03-27T18:27:12.373Z,45.341
2017-03-27T18:30:06.737Z,46.742
2017-03-27T18:33:01.121Z,45.305
2017-03-27T18:35:55.512Z,45.918
2017-03-27T18:38:49.761Z,46.640
2017-03-27T18:41:44.141Z,47.571
2017-03-27T18:44:38.533Z,45.673
2017-03-27T18:47:32.854Z,46.016
2017-03-27T18:50:27.218Z,48.412
2017-03-27T18:53:21.695Z,48.800
2017-03-27T18:56:17.853Z,49.122
2017-03-27T18:59:10.343Z,49.205
2017-03-27T19:02:04.559Z,49.361
2017-03-27T19:04:58.874Z,49.124
2017-03-27T19:07:53.291Z,48.829
2017-03-27T19:10:47.485Z,48.643
2017-03-27T19:13:41.677Z,50.172
2017-03-27T19:16:36.003Z,51.235
2017-03-27T19:19:30.348Z,52.878
2017-03-27T19:22:24.682Z,51.428
2017-03-27T19:25:19.040Z,52.240
2017-03-27T19:28:13.353Z,53.708
2017-03-27T19:31:07.717Z,53.970
2017-03-27T19:34:02.027Z,55.036
2017-03-27T19:36:56.362Z,53.188
2017-03-27T19:39:50.698Z,54.334
2017-03-27T19:42:44.976Z,54.903
2017-03-27T19:45:39.290Z,53.717
2017-03-27T19:48:33.523Z,53.453
2017-03-27T19:51:27.787Z,54.662
2017-03-27T19:54:21.982Z,55.013
2017-03-27T19:57:16.211Z,54.750
2017-03-27T20:00:10.544Z,55.607
2017-03-27T20:03:04.861Z,55.241
2017-03-27T20:05:59.142Z,58.088
2017-03-27T20:08:53.534Z,58.478
2017-03-27T20:11:47.827Z,57.025
2017-03-27T20:14:42.131Z,57.029
2017-03-27T20:17:36.484Z,55.966
2017-03-27T20:20:32.380Z,57.740
2017-03-27T20:23:24.992Z,57.405
2017-03-27T20:26:19.202Z,58.041
2017-03-27T20:29:13.378Z,59.985
2017-03-27T20:32:07.588Z,59.034
2017-03-27T20:35:01.877Z,60.487
2017-03-27T20:37:55.972Z,57.754
2017-03-27T20:40:50.130Z,59.033
2017-03-27T20:43:44.478Z,60.366
2017-03-27T20:46:40.413Z,58.962
2017-03-27T20:49:32.901Z,59.323
2017-03-27T20:52:27.063Z,60.591
2017-03-27T20:55:21.313Z,59.200
2017-03-27T20:58:15.525Z,60.465
2017-03-27T21:01:09.850Z,57.951
2017-03-27T21:04:05.836Z,58.772
2017-03-27T21:06:58.377Z,59.116
2017-03-27T21:09:52.673Z,58.125
2017-03-27T21:12:47.062Z,62.340
2017-03-27T21:15:41.191Z,60.824
2017-03-27T21:18:35.447Z,61.609
2017-03-27T21:21:29.834Z,61.964
2017-03-27T21:24:24.190Z,59.642
2017-03-27T21:27:18.443Z,59.666
2017-03-27T21:30:12.866Z,59.975
2017-03-27T21:33:07.044Z,60.031
2017-03-27T21:36:01.233Z,61.486
2017-03-27T21:38:55.552Z,60.374
2017-03-27T21:41:49.856Z,61.192
2017-03-27T21:44:44.106Z,60.604
2017-03-27T21:47:38.373Z,60.239
2017-03-27T21:50:32.638Z,60.583
2017-03-27T21:53:26.975Z,60.493
2017-03-27T21:56:21.162Z,61.799
2017-03-27T21:59:15.407Z,60.468
2017-03-27T22:02:09.761Z,61.755
2017-03-27T22:05:03.982Z,60.770
2017-03-27T22:07:58.263Z,61.190
2017-03-27T22:10:52.533Z,60.793
2017-03-27T22:13:48.455Z,61.633
2017-03-27T22:16:41.157Z,61.258
2017-03-27T22:19:35.392Z,61.260
2017-03-27T22:22:29.642Z,61.396
2017-03-27T22:25:23.834Z,62.541
2017-03-27T22:28:18.181Z,62.733
2017-03-27T22:31:12.355Z,62.039
2017-03-27T22:34:06.648Z,62.222
2017-03-27T22:37:00.909Z,62.601
2017-03-27T22:39:55.180Z,62.959
2017-03-27T22:42:49.427Z,63.643
2017-03-27T22:45:45.337Z,63.309
2017-03-27T22:48:37.929Z,64.701
2017-03-27T22:51:32.241Z,65.613
2017-03-27T22:54:26.359Z,63.721
2017-03-27T22:57:20.410Z,64.547
2017-03-27T23:00:16.388Z,65.124
2017-03-27T23:03:08.847Z,63.733
2017-03-27T23:06:03.116Z,64.238
2017-03-27T23:08:58.950Z,64.627
2017-03-27T23:11:51.463Z,64.585
2017-03-27T23:14:45.730Z,64.307
2017-03-27T23:17:40.199Z,65.014
2017-03-27T23:20:34.418Z,65.000
2017-03-27T23:23:28.603Z,65.865
2017-03-27T23:26:22.847Z,64.942
2017-03-27T23:29:16.979Z,65.948
2017-03-27T23:32:12.927Z,66.166
2017-03-27T23:35:05.497Z,65.696
2017-03-27T23:37:59.550Z,65.787
2017-03-27T23:40:53.685Z,65.996
2017-03-27T23:43:47.807Z,66.135
2017-03-27T23:46:41.938Z,65.814
2017-03-27T23:49:36.133Z,65.399
2017-03-27T23:52:30.220Z,66.026
2017-03-27T23:55:26.117Z,65.886
2017-03-27T23:58:18.419Z,65.771
